sensor_id;sensor_type;location;lat;lon;timestamp;temperature;humidity
51793;DHT22;37850;53.178;6.376;2022-07-01T00:01:59;15.30;99.90
51793;DHT22;37850;53.178;6.376;2022-07-01T00:04:24;15.30;99.90
51793;DHT22;37850;53.178;6.376;2022-07-01T00:06:53;15.30;99.90
51793;DHT22;37850;53.178;6.376;2022-07-01T00:09:19;15.30;99.90
51793;DHT22;37850;53.178;6.376;2022-07-01T00:11:44;15.30;99.90
51793;DHT22;37850;53.178;6.376;2022-07-01T00:14:10;15.30;99.90
51793;DHT22;37850;53.178;6.376;2022-07-01T00:16:36;15.30;99.90
51793;DHT22;37850;53.178;6.376;2022-07-01T00:19:02;15.30;99.90
51793;DHT22;37850;53.178;6.376;2022-07-01T00:21:28;15.30;99.90
51793;DHT22;37850;53.178;6.376;2022-07-01T00:23:54;15.30;99.90
51793;DHT22;37850;53.178;6.376;2022-07-01T00:26:20;15.30;99.90
51793;DHT22;37850;53.178;6.376;2022-07-01T00:28:46;15.40;99.90
51793;DHT22;37850;53.178;6.376;2022-07-01T00:31:12;15.30;99.90
51793;DHT22;37850;53.178;6.376;2022-07-01T00:33:37;15.30;99.90
51793;DHT22;37850;53.178;6.376;2022-07-01T00:36:03;15.40;99.90
51793;DHT22;37850;53.178;6.376;2022-07-01T00:38:29;15.40;99.90
51793;DHT22;37850;53.178;6.376;2022-07-01T00:40:55;15.30;99.90
51793;DHT22;37850;53.178;6.376;2022-07-01T00:43:21;15.40;99.90
51793;DHT22;37850;53.178;6.376;2022-07-01T00:45:51;15.40;99.90
51793;DHT22;37850;53.178;6.376;2022-07-01T00:48:18;15.30;99.90
51793;DHT22;37850;53.178;6.376;2022-07-01T00:50:45;15.30;99.90
51793;DHT22;37850;53.178;6.376;2022-07-01T00:53:14;15.30;99.90
51793;DHT22;37850;53.178;6.376;2022-07-01T00:55:41;15.40;99.90
51793;DHT22;37850;53.178;6.376;2022-07-01T00:58:08;15.40;99.90
51793;DHT22;37850;53.178;6.376;2022-07-01T01:00:36;15.40;99.90
51793;DHT22;37850;53.178;6.376;2022-07-01T01:03:05;15.40;99.90
51793;DHT22;37850;53.178;6.376;2022-07-01T01:05:31;15.30;99.90
51793;DHT22;37850;53.178;6.376;2022-07-01T01:07:57;15.30;99.90
51793;DHT22;37850;53.178;6.376;2022-07-01T01:10:24;15.30;99.90
51793;DHT22;37850;53.178;6.376;2022-07-01T01:12:51;15.30;99.90
51793;DHT22;37850;53.178;6.376;2022-07-01T01:15:18;15.30;99.90
51793;DHT22;37850;53.178;6.376;2022-07-01T01:17:44;15.30;99.90
51793;DHT22;37850;53.178;6.376;2022-07-01T01:20:18;15.30;99.90
51793;DHT22;37850;53.178;6.376;2022-07-01T01:22:45;15.30;99.90
51793;DHT22;37850;53.178;6.376;2022-07-01T01:25:12;15.30;99.90
51793;DHT22;37850;53.178;6.376;2022-07-01T01:27:37;15.20;99.90
51793;DHT22;37850;53.178;6.376;2022-07-01T01:30:05;15.20;99.90
51793;DHT22;37850;53.178;6.376;2022-07-01T01:32:31;15.20;99.90
51793;DHT22;37850;53.178;6.376;2022-07-01T01:34:56;15.20;99.90
51793;DHT22;37850;53.178;6.376;2022-07-01T01:37:22;15.20;99.90
51793;DHT22;37850;53.178;6.376;2022-07-01T01:39:48;15.20;99.90
51793;DHT22;37850;53.178;6.376;2022-07-01T01:42:14;15.10;99.90
51793;DHT22;37850;53.178;6.376;2022-07-01T01:44:39;15.20;99.90
51793;DHT22;37850;53.178;6.376;2022-07-01T01:47:05;15.10;99.90
51793;DHT22;37850;53.178;6.376;2022-07-01T01:49:31;15.10;99.90
51793;DHT22;37850;53.178;6.376;2022-07-01T01:51:58;15.10;99.90
51793;DHT22;37850;53.178;6.376;2022-07-01T01:54:25;15.10;99.90
51793;DHT22;37850;53.178;6.376;2022-07-01T01:56:51;15.10;99.90
51793;DHT22;37850;53.178;6.376;2022-07-01T01:59:17;15.10;99.90
51793;DHT22;37850;53.178;6.376;2022-07-01T02:01:43;15.10;99.90
51793;DHT22;37850;53.178;6.376;2022-07-01T02:04:09;15.00;99.90
51793;DHT22;37850;53.178;6.376;2022-07-01T02:06:34;15.10;99.90
51793;DHT22;37850;53.178;6.376;2022-07-01T02:09:00;15.00;99.90
51793;DHT22;37850;53.178;6.376;2022-07-01T02:11:26;15.00;99.90
51793;DHT22;37850;53.178;6.376;2022-07-01T02:13:52;15.00;99.90
51793;DHT22;37850;53.178;6.376;2022-07-01T02:16:18;15.00;99.90
51793;DHT22;37850;53.178;6.376;2022-07-01T02:18:44;14.90;99.90
51793;DHT22;37850;53.178;6.376;2022-07-01T02:21:09;14.80;99.90
51793;DHT22;37850;53.178;6.376;2022-07-01T02:23:35;14.90;99.90
51793;DHT22;37850;53.178;6.376;2022-07-01T02:26:01;14.90;99.90
51793;DHT22;37850;53.178;6.376;2022-07-01T02:28:26;14.90;99.90
51793;DHT22;37850;53.178;6.376;2022-07-01T02:30:52;14.90;99.90
51793;DHT22;37850;53.178;6.376;2022-07-01T02:33:18;14.90;99.90
51793;DHT22;37850;53.178;6.376;2022-07-01T02:35:43;14.80;99.90
51793;DHT22;37850;53.178;6.376;2022-07-01T02:38:09;14.80;99.90
51793;DHT22;37850;53.178;6.376;2022-07-01T02:40:35;14.80;99.90
51793;DHT22;37850;53.178;6.376;2022-07-01T02:43:06;14.80;99.90
51793;DHT22;37850;53.178;6.376;2022-07-01T02:45:31;14.80;99.90
51793;DHT22;37850;53.178;6.376;2022-07-01T02:47:57;14.80;99.90
51793;DHT22;37850;53.178;6.376;2022-07-01T02:50:23;14.70;99.90
51793;DHT22;37850;53.178;6.376;2022-07-01T02:52:48;14.70;99.90
51793;DHT22;37850;53.178;6.376;2022-07-01T02:55:14;14.70;99.90
51793;DHT22;37850;53.178;6.376;2022-07-01T02:57:41;14.70;99.90
51793;DHT22;37850;53.178;6.376;2022-07-01T03:00:10;14.70;99.90
51793;DHT22;37850;53.178;6.376;2022-07-01T03:02:36;14.70;99.90
51793;DHT22;37850;53.178;6.376;2022-07-01T03:05:03;14.60;99.90
51793;DHT22;37850;53.178;6.376;2022-07-01T03:07:29;14.60;99.90
51793;DHT22;37850;53.178;6.376;2022-07-01T03:09:55;14.70;99.90
51793;DHT22;37850;53.178;6.376;2022-07-01T03:12:21;14.60;99.90
51793;DHT22;37850;53.178;6.376;2022-07-01T03:15:07;14.60;99.90
51793;DHT22;37850;53.178;6.376;2022-07-01T03:17:35;14.60;99.90
51793;DHT22;37850;53.178;6.376;2022-07-01T03:20:03;14.60;99.90
51793;DHT22;37850;53.178;6.376;2022-07-01T03:22:30;14.60;99.90
51793;DHT22;37850;53.178;6.376;2022-07-01T03:24:57;14.50;99.90
51793;DHT22;37850;53.178;6.376;2022-07-01T03:27:23;14.60;99.90
51793;DHT22;37850;53.178;6.376;2022-07-01T03:29:49;14.50;99.90
51793;DHT22;37850;53.178;6.376;2022-07-01T03:32:15;14.60;99.90
51793;DHT22;37850;53.178;6.376;2022-07-01T03:34:42;14.50;99.90
51793;DHT22;37850;53.178;6.376;2022-07-01T03:37:09;14.50;99.90
51793;DHT22;37850;53.178;6.376;2022-07-01T03:39:36;14.40;99.90
51793;DHT22;37850;53.178;6.376;2022-07-01T03:42:04;14.50;99.90
51793;DHT22;37850;53.178;6.376;2022-07-01T03:44:30;14.50;99.90
51793;DHT22;37850;53.178;6.376;2022-07-01T03:46:55;14.50;99.90
51793;DHT22;37850;53.178;6.376;2022-07-01T03:49:21;14.50;99.90
51793;DHT22;37850;53.178;6.376;2022-07-01T03:51:49;14.50;99.90
51793;DHT22;37850;53.178;6.376;2022-07-01T03:54:14;14.50;99.90
51793;DHT22;37850;53.178;6.376;2022-07-01T03:57:02;14.60;99.90
51793;DHT22;37850;53.178;6.376;2022-07-01T03:59:30;14.60;99.90
51793;DHT22;37850;53.178;6.376;2022-07-01T04:01:57;14.60;99.90
51793;DHT22;37850;53.178;6.376;2022-07-01T04:04:24;14.50;99.90
51793;DHT22;37850;53.178;6.376;2022-07-01T04:06:53;14.70;99.90
51793;DHT22;37850;53.178;6.376;2022-07-01T04:09:19;14.60;99.90
51793;DHT22;37850;53.178;6.376;2022-07-01T04:11:47;14.60;99.90
51793;DHT22;37850;53.178;6.376;2022-07-01T04:14:13;14.70;99.90
51793;DHT22;37850;53.178;6.376;2022-07-01T04:16:39;14.70;99.90
51793;DHT22;37850;53.178;6.376;2022-07-01T04:19:05;14.70;99.90
51793;DHT22;37850;53.178;6.376;2022-07-01T04:21:31;14.70;99.90
51793;DHT22;37850;53.178;6.376;2022-07-01T04:24:16;14.70;99.90
51793;DHT22;37850;53.178;6.376;2022-07-01T04:26:43;14.70;99.90
51793;DHT22;37850;53.178;6.376;2022-07-01T04:29:09;14.70;99.90
51793;DHT22;37850;53.178;6.376;2022-07-01T04:31:36;14.70;99.90
51793;DHT22;37850;53.178;6.376;2022-07-01T04:34:02;14.70;99.90
51793;DHT22;37850;53.178;6.376;2022-07-01T04:36:27;14.60;99.90
51793;DHT22;37850;53.178;6.376;2022-07-01T04:38:53;14.70;99.90
51793;DHT22;37850;53.178;6.376;2022-07-01T04:41:19;14.70;99.90
51793;DHT22;37850;53.178;6.376;2022-07-01T04:44:03;14.60;99.90
51793;DHT22;37850;53.178;6.376;2022-07-01T04:46:29;14.60;99.90
51793;DHT22;37850;53.178;6.376;2022-07-01T04:48:55;14.70;99.90
51793;DHT22;37850;53.178;6.376;2022-07-01T04:51:21;14.60;99.90
51793;DHT22;37850;53.178;6.376;2022-07-01T04:53:47;14.60;99.90
51793;DHT22;37850;53.178;6.376;2022-07-01T04:56:12;14.70;99.90
51793;DHT22;37850;53.178;6.376;2022-07-01T04:58:40;14.70;99.90
51793;DHT22;37850;53.178;6.376;2022-07-01T05:01:06;14.70;99.90
51793;DHT22;37850;53.178;6.376;2022-07-01T05:03:31;14.70;99.90
51793;DHT22;37850;53.178;6.376;2022-07-01T05:05:57;14.60;99.90
51793;DHT22;37850;53.178;6.376;2022-07-01T05:08:23;14.70;99.90
51793;DHT22;37850;53.178;6.376;2022-07-01T05:10:49;14.70;99.90
51793;DHT22;37850;53.178;6.376;2022-07-01T05:13:15;14.70;99.90
51793;DHT22;37850;53.178;6.376;2022-07-01T05:15:41;14.70;99.90
51793;DHT22;37850;53.178;6.376;2022-07-01T05:18:06;14.70;99.90
51793;DHT22;37850;53.178;6.376;2022-07-01T05:20:51;14.90;99.90
51793;DHT22;37850;53.178;6.376;2022-07-01T05:23:35;14.70;99.90
51793;DHT22;37850;53.178;6.376;2022-07-01T05:26:02;14.70;99.90
51793;DHT22;37850;53.178;6.376;2022-07-01T05:28:27;14.80;99.90
51793;DHT22;37850;53.178;6.376;2022-07-01T05:30:53;14.80;99.90
51793;DHT22;37850;53.178;6.376;2022-07-01T05:33:19;14.80;99.90
51793;DHT22;37850;53.178;6.376;2022-07-01T05:35:47;14.80;99.90
51793;DHT22;37850;53.178;6.376;2022-07-01T05:38:12;14.80;99.90
51793;DHT22;37850;53.178;6.376;2022-07-01T05:40:38;14.90;99.90
51793;DHT22;37850;53.178;6.376;2022-07-01T05:43:04;15.00;99.90
51793;DHT22;37850;53.178;6.376;2022-07-01T05:45:30;15.00;99.90
51793;DHT22;37850;53.178;6.376;2022-07-01T05:47:55;14.90;99.90
51793;DHT22;37850;53.178;6.376;2022-07-01T05:50:23;15.00;99.90
51793;DHT22;37850;53.178;6.376;2022-07-01T05:52:49;15.10;99.90
51793;DHT22;37850;53.178;6.376;2022-07-01T05:55:15;15.10;99.90
51793;DHT22;37850;53.178;6.376;2022-07-01T05:57:41;15.10;99.90
51793;DHT22;37850;53.178;6.376;2022-07-01T06:00:07;15.10;99.90
51793;DHT22;37850;53.178;6.376;2022-07-01T06:02:35;15.20;99.90
51793;DHT22;37850;53.178;6.376;2022-07-01T06:05:01;15.30;99.90
51793;DHT22;37850;53.178;6.376;2022-07-01T06:07:28;15.40;99.90
51793;DHT22;37850;53.178;6.376;2022-07-01T06:09:55;15.30;99.90
51793;DHT22;37850;53.178;6.376;2022-07-01T06:12:21;15.50;99.90
51793;DHT22;37850;53.178;6.376;2022-07-01T06:14:48;15.50;99.90
51793;DHT22;37850;53.178;6.376;2022-07-01T06:17:14;15.50;99.90
51793;DHT22;37850;53.178;6.376;2022-07-01T06:19:40;15.60;99.90
51793;DHT22;37850;53.178;6.376;2022-07-01T06:22:06;15.70;99.90
51793;DHT22;37850;53.178;6.376;2022-07-01T06:24:32;15.80;99.90
51793;DHT22;37850;53.178;6.376;2022-07-01T06:26:58;15.90;99.90
51793;DHT22;37850;53.178;6.376;2022-07-01T06:29:23;15.90;99.90
51793;DHT22;37850;53.178;6.376;2022-07-01T06:31:49;16.00;99.90
51793;DHT22;37850;53.178;6.376;2022-07-01T06:34:15;16.00;99.90
51793;DHT22;37850;53.178;6.376;2022-07-01T06:36:41;16.20;99.90
51793;DHT22;37850;53.178;6.376;2022-07-01T06:39:07;16.30;99.90
51793;DHT22;37850;53.178;6.376;2022-07-01T06:41:32;16.40;99.90
51793;DHT22;37850;53.178;6.376;2022-07-01T06:44:00;16.30;99.90
51793;DHT22;37850;53.178;6.376;2022-07-01T06:46:26;16.40;99.90
51793;DHT22;37850;53.178;6.376;2022-07-01T06:48:52;16.40;99.90
51793;DHT22;37850;53.178;6.376;2022-07-01T06:51:18;16.40;99.90
51793;DHT22;37850;53.178;6.376;2022-07-01T06:53:44;16.40;99.90
51793;DHT22;37850;53.178;6.376;2022-07-01T06:56:12;16.40;99.90
51793;DHT22;37850;53.178;6.376;2022-07-01T06:58:38;16.40;99.90
51793;DHT22;37850;53.178;6.376;2022-07-01T07:01:04;16.40;99.90
51793;DHT22;37850;53.178;6.376;2022-07-01T07:03:31;16.30;99.90
51793;DHT22;37850;53.178;6.376;2022-07-01T07:06:01;16.40;99.90
51793;DHT22;37850;53.178;6.376;2022-07-01T07:08:31;16.50;99.90
51793;DHT22;37850;53.178;6.376;2022-07-01T07:10:57;16.50;99.90
51793;DHT22;37850;53.178;6.376;2022-07-01T07:13:24;16.50;99.90
51793;DHT22;37850;53.178;6.376;2022-07-01T07:15:50;16.40;99.90
51793;DHT22;37850;53.178;6.376;2022-07-01T07:18:16;16.40;99.90
51793;DHT22;37850;53.178;6.376;2022-07-01T07:20:42;16.40;99.90
51793;DHT22;37850;53.178;6.376;2022-07-01T07:23:08;16.40;99.90
51793;DHT22;37850;53.178;6.376;2022-07-01T07:25:34;16.50;99.90
51793;DHT22;37850;53.178;6.376;2022-07-01T07:28:00;16.50;99.90
51793;DHT22;37850;53.178;6.376;2022-07-01T07:30:25;16.50;99.90
51793;DHT22;37850;53.178;6.376;2022-07-01T07:32:51;16.60;99.90
51793;DHT22;37850;53.178;6.376;2022-07-01T07:35:17;16.70;99.90
51793;DHT22;37850;53.178;6.376;2022-07-01T07:37:43;16.80;99.90
51793;DHT22;37850;53.178;6.376;2022-07-01T07:40:11;16.90;99.90
51793;DHT22;37850;53.178;6.376;2022-07-01T07:42:38;16.90;99.90
51793;DHT22;37850;53.178;6.376;2022-07-01T07:45:05;16.90;99.90
51793;DHT22;37850;53.178;6.376;2022-07-01T07:47:35;16.90;99.90
51793;DHT22;37850;53.178;6.376;2022-07-01T07:50:01;16.90;99.90
51793;DHT22;37850;53.178;6.376;2022-07-01T07:52:28;17.00;99.90
51793;DHT22;37850;53.178;6.376;2022-07-01T07:54:54;17.10;99.90
51793;DHT22;37850;53.178;6.376;2022-07-01T07:57:20;17.30;99.90
51793;DHT22;37850;53.178;6.376;2022-07-01T07:59:46;17.50;99.90
51793;DHT22;37850;53.178;6.376;2022-07-01T08:02:12;17.80;99.90
51793;DHT22;37850;53.178;6.376;2022-07-01T08:04:38;18.10;99.90
51793;DHT22;37850;53.178;6.376;2022-07-01T08:07:03;18.40;99.90
51793;DHT22;37850;53.178;6.376;2022-07-01T08:09:29;18.80;99.90
51793;DHT22;37850;53.178;6.376;2022-07-01T08:11:57;19.20;99.90
51793;DHT22;37850;53.178;6.376;2022-07-01T08:14:23;19.70;99.90
51793;DHT22;37850;53.178;6.376;2022-07-01T08:16:48;20.00;99.90
51793;DHT22;37850;53.178;6.376;2022-07-01T08:19:14;20.10;99.90
51793;DHT22;37850;53.178;6.376;2022-07-01T08:21:40;20.20;99.90
51793;DHT22;37850;53.178;6.376;2022-07-01T08:24:06;20.20;99.90
51793;DHT22;37850;53.178;6.376;2022-07-01T08:26:31;20.20;99.90
51793;DHT22;37850;53.178;6.376;2022-07-01T08:28:57;20.40;99.90
51793;DHT22;37850;53.178;6.376;2022-07-01T08:31:23;20.60;99.90
51793;DHT22;37850;53.178;6.376;2022-07-01T08:33:48;20.90;99.90
51793;DHT22;37850;53.178;6.376;2022-07-01T08:36:14;21.20;99.90
51793;DHT22;37850;53.178;6.376;2022-07-01T08:38:40;21.50;99.90
51793;DHT22;37850;53.178;6.376;2022-07-01T08:41:06;21.80;99.90
51793;DHT22;37850;53.178;6.376;2022-07-01T08:43:33;21.80;99.90
51793;DHT22;37850;53.178;6.376;2022-07-01T08:46:02;21.90;99.90
51793;DHT22;37850;53.178;6.376;2022-07-01T08:48:29;22.00;99.90
51793;DHT22;37850;53.178;6.376;2022-07-01T08:50:55;22.00;99.90
51793;DHT22;37850;53.178;6.376;2022-07-01T08:53:21;22.00;99.90
51793;DHT22;37850;53.178;6.376;2022-07-01T08:55:47;21.80;99.90
51793;DHT22;37850;53.178;6.376;2022-07-01T08:58:31;21.70;99.90
51793;DHT22;37850;53.178;6.376;2022-07-01T09:01:18;21.60;99.90
51793;DHT22;37850;53.178;6.376;2022-07-01T09:03:47;21.40;99.90
51793;DHT22;37850;53.178;6.376;2022-07-01T09:06:15;21.10;99.90
51793;DHT22;37850;53.178;6.376;2022-07-01T09:08:42;21.10;99.90
51793;DHT22;37850;53.178;6.376;2022-07-01T09:11:16;21.10;99.90
51793;DHT22;37850;53.178;6.376;2022-07-01T09:13:43;21.20;99.90
51793;DHT22;37850;53.178;6.376;2022-07-01T09:16:14;21.20;99.90
51793;DHT22;37850;53.178;6.376;2022-07-01T09:18:40;21.40;99.90
51793;DHT22;37850;53.178;6.376;2022-07-01T09:21:13;21.60;99.90
51793;DHT22;37850;53.178;6.376;2022-07-01T09:23:39;22.00;99.90
51793;DHT22;37850;53.178;6.376;2022-07-01T09:26:05;22.30;99.90
51793;DHT22;37850;53.178;6.376;2022-07-01T09:28:31;22.30;99.90
51793;DHT22;37850;53.178;6.376;2022-07-01T09:30:58;22.60;99.90
51793;DHT22;37850;53.178;6.376;2022-07-01T09:33:26;23.20;99.90
51793;DHT22;37850;53.178;6.376;2022-07-01T09:35:53;23.70;99.90
51793;DHT22;37850;53.178;6.376;2022-07-01T09:38:24;23.60;99.90
51793;DHT22;37850;53.178;6.376;2022-07-01T09:40:52;23.40;99.90
51793;DHT22;37850;53.178;6.376;2022-07-01T09:43:27;23.30;99.90
51793;DHT22;37850;53.178;6.376;2022-07-01T09:46:03;23.00;99.90
51793;DHT22;37850;53.178;6.376;2022-07-01T09:50:58;22.50;99.90
51793;DHT22;37850;53.178;6.376;2022-07-01T09:53:24;22.70;99.90
51793;DHT22;37850;53.178;6.376;2022-07-01T09:55:51;22.70;99.90
51793;DHT22;37850;53.178;6.376;2022-07-01T09:58:17;22.70;99.90
51793;DHT22;37850;53.178;6.376;2022-07-01T10:00:44;22.60;99.90
51793;DHT22;37850;53.178;6.376;2022-07-01T10:03:10;22.40;99.90
51793;DHT22;37850;53.178;6.376;2022-07-01T10:05:47;22.50;99.90
51793;DHT22;37850;53.178;6.376;2022-07-01T10:13:41;23.50;99.90
51793;DHT22;37850;53.178;6.376;2022-07-01T10:16:10;23.50;99.90
51793;DHT22;37850;53.178;6.376;2022-07-01T10:18:36;23.40;99.90
51793;DHT22;37850;53.178;6.376;2022-07-01T10:21:02;23.20;99.90
51793;DHT22;37850;53.178;6.376;2022-07-01T10:23:41;23.00;99.90
51793;DHT22;37850;53.178;6.376;2022-07-01T10:26:08;22.70;99.90
51793;DHT22;37850;53.178;6.376;2022-07-01T10:31:17;21.90;99.90
51793;DHT22;37850;53.178;6.376;2022-07-01T10:33:50;21.80;99.90
51793;DHT22;37850;53.178;6.376;2022-07-01T10:36:17;21.80;99.90
51793;DHT22;37850;53.178;6.376;2022-07-01T10:39:07;21.70;99.90
51793;DHT22;37850;53.178;6.376;2022-07-01T10:41:58;21.40;99.90
51793;DHT22;37850;53.178;6.376;2022-07-01T10:44:25;21.20;99.90
51793;DHT22;37850;53.178;6.376;2022-07-01T10:46:56;21.10;99.90
51793;DHT22;37850;53.178;6.376;2022-07-01T10:52:07;20.40;99.90
51793;DHT22;37850;53.178;6.376;2022-07-01T10:59:43;19.50;99.90
51793;DHT22;37850;53.178;6.376;2022-07-01T11:02:11;19.30;99.90
51793;DHT22;37850;53.178;6.376;2022-07-01T11:04:38;19.20;99.90
51793;DHT22;37850;53.178;6.376;2022-07-01T11:07:04;19.10;99.90
51793;DHT22;37850;53.178;6.376;2022-07-01T11:09:29;19.00;99.90
51793;DHT22;37850;53.178;6.376;2022-07-01T11:11:55;18.90;99.90
51793;DHT22;37850;53.178;6.376;2022-07-01T11:14:21;18.80;99.90
51793;DHT22;37850;53.178;6.376;2022-07-01T11:16:51;18.80;99.90
51793;DHT22;37850;53.178;6.376;2022-07-01T11:19:20;18.70;99.90
51793;DHT22;37850;53.178;6.376;2022-07-01T11:21:53;18.70;99.90
51793;DHT22;37850;53.178;6.376;2022-07-01T11:24:22;18.70;99.90
51793;DHT22;37850;53.178;6.376;2022-07-01T11:26:49;18.70;99.90
51793;DHT22;37850;53.178;6.376;2022-07-01T11:29:24;18.80;99.90
51793;DHT22;37850;53.178;6.376;2022-07-01T11:31:51;19.30;99.90
51793;DHT22;37850;53.178;6.376;2022-07-01T11:34:17;19.90;99.90
51793;DHT22;37850;53.178;6.376;2022-07-01T11:36:45;20.20;99.90
51793;DHT22;37850;53.178;6.376;2022-07-01T11:39:30;20.50;99.90
51793;DHT22;37850;53.178;6.376;2022-07-01T11:42:00;21.20;99.90
51793;DHT22;37850;53.178;6.376;2022-07-01T11:44:35;21.80;99.90
51793;DHT22;37850;53.178;6.376;2022-07-01T11:47:03;22.30;99.90
51793;DHT22;37850;53.178;6.376;2022-07-01T11:49:30;22.40;99.90
51793;DHT22;37850;53.178;6.376;2022-07-01T11:52:04;22.20;99.90
51793;DHT22;37850;53.178;6.376;2022-07-01T11:54:38;22.30;99.90
51793;DHT22;37850;53.178;6.376;2022-07-01T11:57:12;22.40;99.90
51793;DHT22;37850;53.178;6.376;2022-07-01T11:59:39;22.30;99.90
51793;DHT22;37850;53.178;6.376;2022-07-01T12:02:06;22.20;99.90
51793;DHT22;37850;53.178;6.376;2022-07-01T12:04:32;22.20;99.90
51793;DHT22;37850;53.178;6.376;2022-07-01T12:06:59;22.40;99.90
51793;DHT22;37850;53.178;6.376;2022-07-01T12:09:25;22.70;99.90
51793;DHT22;37850;53.178;6.376;2022-07-01T12:11:52;23.00;99.90
51793;DHT22;37850;53.178;6.376;2022-07-01T12:14:26;23.30;99.90
51793;DHT22;37850;53.178;6.376;2022-07-01T12:16:55;23.40;99.90
51793;DHT22;37850;53.178;6.376;2022-07-01T12:19:27;23.20;99.90
51793;DHT22;37850;53.178;6.376;2022-07-01T12:21:55;23.00;99.90
51793;DHT22;37850;53.178;6.376;2022-07-01T12:24:24;22.80;99.90
51793;DHT22;37850;53.178;6.376;2022-07-01T12:29:27;22.40;99.90
51793;DHT22;37850;53.178;6.376;2022-07-01T12:32:04;22.40;99.90
51793;DHT22;37850;53.178;6.376;2022-07-01T12:37:13;21.90;99.90
51793;DHT22;37850;53.178;6.376;2022-07-01T12:42:19;21.50;99.90
51793;DHT22;37850;53.178;6.376;2022-07-01T12:44:45;21.40;99.90
51793;DHT22;37850;53.178;6.376;2022-07-01T12:47:27;21.60;99.90
51793;DHT22;37850;53.178;6.376;2022-07-01T12:50:26;22.10;99.90
51793;DHT22;37850;53.178;6.376;2022-07-01T12:53:06;22.00;99.90
51793;DHT22;37850;53.178;6.376;2022-07-01T12:55:33;21.70;99.90
51793;DHT22;37850;53.178;6.376;2022-07-01T12:57:59;21.40;99.90
51793;DHT22;37850;53.178;6.376;2022-07-01T13:00:26;21.30;99.90
51793;DHT22;37850;53.178;6.376;2022-07-01T13:02:59;21.30;99.90
51793;DHT22;37850;53.178;6.376;2022-07-01T13:05:26;21.50;99.90
51793;DHT22;37850;53.178;6.376;2022-07-01T13:07:52;21.90;99.90
51793;DHT22;37850;53.178;6.376;2022-07-01T13:10:18;22.30;99.90
51793;DHT22;37850;53.178;6.376;2022-07-01T13:12:45;22.50;99.90
51793;DHT22;37850;53.178;6.376;2022-07-01T13:15:12;22.60;99.90
51793;DHT22;37850;53.178;6.376;2022-07-01T13:17:38;22.60;99.90
51793;DHT22;37850;53.178;6.376;2022-07-01T13:20:05;22.60;99.90
51793;DHT22;37850;53.178;6.376;2022-07-01T13:22:31;22.70;99.90
51793;DHT22;37850;53.178;6.376;2022-07-01T13:24:57;22.50;99.90
51793;DHT22;37850;53.178;6.376;2022-07-01T13:27:22;22.40;99.90
51793;DHT22;37850;53.178;6.376;2022-07-01T13:29:49;22.20;99.90
51793;DHT22;37850;53.178;6.376;2022-07-01T13:32:15;22.00;99.90
51793;DHT22;37850;53.178;6.376;2022-07-01T13:34:41;21.90;99.90
51793;DHT22;37850;53.178;6.376;2022-07-01T13:37:10;22.10;99.90
51793;DHT22;37850;53.178;6.376;2022-07-01T13:39:36;22.40;99.90
51793;DHT22;37850;53.178;6.376;2022-07-01T13:42:02;22.50;99.90
51793;DHT22;37850;53.178;6.376;2022-07-01T13:44:28;22.70;99.90
51793;DHT22;37850;53.178;6.376;2022-07-01T13:46:54;22.60;99.90
51793;DHT22;37850;53.178;6.376;2022-07-01T13:49:20;22.50;99.90
51793;DHT22;37850;53.178;6.376;2022-07-01T13:51:48;22.50;99.90
51793;DHT22;37850;53.178;6.376;2022-07-01T13:54:14;22.60;99.90
51793;DHT22;37850;53.178;6.376;2022-07-01T13:56:40;22.70;99.90
51793;DHT22;37850;53.178;6.376;2022-07-01T13:59:07;22.80;99.90
51793;DHT22;37850;53.178;6.376;2022-07-01T14:01:33;22.80;99.90
51793;DHT22;37850;53.178;6.376;2022-07-01T14:04:00;22.80;99.30
51793;DHT22;37850;53.178;6.376;2022-07-01T14:06:26;22.90;99.90
51793;DHT22;37850;53.178;6.376;2022-07-01T14:08:52;22.80;99.90
51793;DHT22;37850;53.178;6.376;2022-07-01T14:11:17;22.80;99.90
51793;DHT22;37850;53.178;6.376;2022-07-01T14:13:43;22.70;99.90
51793;DHT22;37850;53.178;6.376;2022-07-01T14:16:09;22.60;99.90
51793;DHT22;37850;53.178;6.376;2022-07-01T14:18:36;22.60;99.90
51793;DHT22;37850;53.178;6.376;2022-07-01T14:21:03;22.50;99.90
51793;DHT22;37850;53.178;6.376;2022-07-01T14:23:29;22.40;99.50
51793;DHT22;37850;53.178;6.376;2022-07-01T14:25:55;22.20;98.70
51793;DHT22;37850;53.178;6.376;2022-07-01T14:28:21;22.00;98.80
51793;DHT22;37850;53.178;6.376;2022-07-01T14:30:47;21.90;99.90
51793;DHT22;37850;53.178;6.376;2022-07-01T14:33:13;22.10;99.70
51793;DHT22;37850;53.178;6.376;2022-07-01T14:35:38;22.30;99.30
51793;DHT22;37850;53.178;6.376;2022-07-01T14:38:04;22.50;99.60
51793;DHT22;37850;53.178;6.376;2022-07-01T14:40:33;22.60;98.90
51793;DHT22;37850;53.178;6.376;2022-07-01T14:42:59;22.60;99.90
51793;DHT22;37850;53.178;6.376;2022-07-01T14:45:25;22.50;99.40
51793;DHT22;37850;53.178;6.376;2022-07-01T14:47:51;22.50;99.30
51793;DHT22;37850;53.178;6.376;2022-07-01T14:50:16;22.40;99.70
51793;DHT22;37850;53.178;6.376;2022-07-01T14:52:42;22.50;99.60
51793;DHT22;37850;53.178;6.376;2022-07-01T14:55:08;22.50;99.00
51793;DHT22;37850;53.178;6.376;2022-07-01T14:57:35;22.50;99.30
51793;DHT22;37850;53.178;6.376;2022-07-01T15:00:02;22.40;99.20
51793;DHT22;37850;53.178;6.376;2022-07-01T15:02:28;22.40;99.90
51793;DHT22;37850;53.178;6.376;2022-07-01T15:04:54;22.30;98.50
51793;DHT22;37850;53.178;6.376;2022-07-01T15:07:23;22.10;99.80
51793;DHT22;37850;53.178;6.376;2022-07-01T15:09:52;22.10;97.40
51793;DHT22;37850;53.178;6.376;2022-07-01T15:12:18;22.00;97.20
51793;DHT22;37850;53.178;6.376;2022-07-01T15:14:46;22.00;98.60
51793;DHT22;37850;53.178;6.376;2022-07-01T15:17:13;21.70;98.60
51793;DHT22;37850;53.178;6.376;2022-07-01T15:19:39;21.50;99.70
51793;DHT22;37850;53.178;6.376;2022-07-01T15:22:06;21.30;99.90
51793;DHT22;37850;53.178;6.376;2022-07-01T15:24:34;21.20;99.90
51793;DHT22;37850;53.178;6.376;2022-07-01T15:27:04;21.00;99.90
51793;DHT22;37850;53.178;6.376;2022-07-01T15:29:30;20.90;99.90
51793;DHT22;37850;53.178;6.376;2022-07-01T15:31:56;20.80;99.90
51793;DHT22;37850;53.178;6.376;2022-07-01T15:34:22;20.70;99.90
51793;DHT22;37850;53.178;6.376;2022-07-01T15:36:48;20.60;99.90
51793;DHT22;37850;53.178;6.376;2022-07-01T15:39:16;20.40;99.90
51793;DHT22;37850;53.178;6.376;2022-07-01T15:41:43;20.30;99.90
51793;DHT22;37850;53.178;6.376;2022-07-01T15:44:09;20.30;99.90
51793;DHT22;37850;53.178;6.376;2022-07-01T15:46:35;20.20;99.90
51793;DHT22;37850;53.178;6.376;2022-07-01T15:49:02;20.10;99.90
51793;DHT22;37850;53.178;6.376;2022-07-01T15:51:28;20.20;99.90
51793;DHT22;37850;53.178;6.376;2022-07-01T15:53:54;20.10;99.90
51793;DHT22;37850;53.178;6.376;2022-07-01T15:56:28;20.10;99.90
51793;DHT22;37850;53.178;6.376;2022-07-01T15:58:55;20.20;99.90